createdAt,value
2019-03-31T00:01:07.338Z,13.28
2019-03-31T00:02:11.688Z,14.58
2019-03-31T00:03:26.427Z,13.03
2019-03-31T00:04:39.653Z,12.23
2019-03-31T00:05:52.900Z,13.18
2019-03-31T00:07:07.419Z,13.25
2019-03-31T00:08:20.662Z,13.25
2019-03-31T00:09:33.904Z,14.05
2019-03-31T00:10:47.136Z,13.58
2019-03-31T00:12:00.387Z,13.32
2019-03-31T00:13:14.536Z,13.40
2019-03-31T00:14:27.840Z,12.95
2019-03-31T00:15:41.077Z,14.33
2019-03-31T00:16:54.341Z,12.68
2019-03-31T00:18:07.592Z,13.83
2019-03-31T00:19:20.819Z,13.72
2019-03-31T00:20:34.151Z,12.63
2019-03-31T00:21:47.521Z,14.63
2019-03-31T00:23:00.769Z,13.03
2019-03-31T00:24:14.000Z,13.18
2019-03-31T00:25:28.189Z,12.75
2019-03-31T00:26:41.462Z,12.75
2019-03-31T00:27:54.722Z,13.32
2019-03-31T00:29:07.968Z,12.25
2019-03-31T00:30:21.219Z,12.78
2019-03-31T00:31:34.429Z,13.22
2019-03-31T00:32:47.660Z,13.15
2019-03-31T00:34:01.861Z,13.30
2019-03-31T00:35:15.242Z,13.28
2019-03-31T00:36:30.098Z,12.70
2019-03-31T00:37:43.329Z,12.85
2019-03-31T00:38:56.561Z,11.60
2019-03-31T00:40:09.805Z,13.45
2019-03-31T00:41:23.028Z,12.28
2019-03-31T00:42:36.272Z,12.25
2019-03-31T00:43:49.522Z,11.35
2019-03-31T00:45:02.758Z,12.28
2019-03-31T00:46:15.999Z,12.20
2019-03-31T00:47:29.323Z,13.18
2019-03-31T00:48:42.610Z,11.83
2019-03-31T00:49:55.853Z,12.90
2019-03-31T00:51:10.354Z,13.25
2019-03-31T00:52:26.517Z,12.75
2019-03-31T00:53:39.761Z,12.10
2019-03-31T00:54:55.433Z,12.13
2019-03-31T00:56:09.822Z,12.15
2019-03-31T00:57:23.069Z,11.97
2019-03-31T00:58:36.441Z,11.75
2019-03-31T00:59:53.879Z,11.60
2019-03-31T01:01:08.773Z,11.60
2019-03-31T01:02:23.648Z,11.18
2019-03-31T01:03:37.015Z,11.68
2019-03-31T01:04:50.965Z,11.88
2019-03-31T01:06:04.333Z,11.45
2019-03-31T01:07:17.557Z,11.80
2019-03-31T01:08:30.929Z,11.48
2019-03-31T01:09:45.545Z,12.63
2019-03-31T01:10:58.850Z,12.55
2019-03-31T01:12:12.088Z,13.13
2019-03-31T01:13:26.577Z,11.25
2019-03-31T01:14:41.573Z,11.53
2019-03-31T01:15:55.552Z,11.78
2019-03-31T01:17:09.249Z,11.97
2019-03-31T01:18:22.737Z,12.73
2019-03-31T01:19:36.160Z,12.10
2019-03-31T01:20:49.579Z,12.50
2019-03-31T01:22:02.852Z,12.13
2019-03-31T01:23:16.095Z,12.63
2019-03-31T01:24:29.325Z,12.03
2019-03-31T01:25:42.549Z,12.78
2019-03-31T01:26:55.775Z,12.75
2019-03-31T01:28:09.013Z,12.50
2019-03-31T01:29:22.252Z,13.28
2019-03-31T01:30:35.520Z,13.28
2019-03-31T01:31:50.810Z,11.12
2019-03-31T01:33:04.198Z,12.23
2019-03-31T01:34:17.670Z,12.80
2019-03-31T01:35:31.085Z,10.20
2019-03-31T01:36:44.476Z,11.08
2019-03-31T01:37:57.775Z,11.40
2019-03-31T01:39:10.997Z,11.57
2019-03-31T01:40:24.252Z,10.48
2019-03-31T01:41:37.534Z,11.33
2019-03-31T01:42:50.774Z,11.50
2019-03-31T01:44:04.020Z,11.33
2019-03-31T01:45:17.262Z,11.12
2019-03-31T01:46:32.122Z,9.68
2019-03-31T01:47:45.357Z,10.60
2019-03-31T01:48:58.590Z,10.78
2019-03-31T01:50:12.539Z,10.38
2019-03-31T01:51:27.409Z,10.85
2019-03-31T01:52:40.633Z,11.05
2019-03-31T01:53:53.885Z,10.23
2019-03-31T01:55:07.562Z,10.98
2019-03-31T01:56:20.962Z,10.90
2019-03-31T01:57:34.406Z,11.35
2019-03-31T01:58:47.641Z,11.15
2019-03-31T02:00:02.403Z,9.83
2019-03-31T02:01:17.252Z,9.33
2019-03-31T02:02:30.851Z,10.53
2019-03-31T02:03:44.212Z,10.50
2019-03-31T02:04:57.517Z,10.03
2019-03-31T02:06:10.732Z,10.72
2019-03-31T02:07:24.002Z,10.95
2019-03-31T02:08:37.232Z,9.90
2019-03-31T02:09:50.469Z,10.55
2019-03-31T02:11:03.706Z,12.07
2019-03-31T02:12:16.938Z,10.10
2019-03-31T02:13:31.178Z,11.03
2019-03-31T02:14:44.413Z,10.08
2019-03-31T02:15:57.667Z,10.03
2019-03-31T02:17:10.901Z,11.05
2019-03-31T02:18:24.137Z,10.35
2019-03-31T02:19:37.361Z,10.23
2019-03-31T02:20:50.741Z,10.08
2019-03-31T02:22:04.009Z,10.45
2019-03-31T02:23:17.313Z,10.50
2019-03-31T02:24:30.656Z,9.35
2019-03-31T02:25:43.925Z,10.93
2019-03-31T02:26:57.145Z,9.65
2019-03-31T02:28:10.384Z,10.48
2019-03-31T02:29:23.605Z,10.55
2019-03-31T02:30:36.860Z,10.70
2019-03-31T02:31:50.386Z,10.63
2019-03-31T02:33:03.621Z,10.05
2019-03-31T02:34:16.854Z,10.25
2019-03-31T02:35:30.092Z,9.43
2019-03-31T02:36:43.319Z,10.43
2019-03-31T02:37:58.170Z,10.10
2019-03-31T02:39:11.413Z,9.60
2019-03-31T02:40:24.636Z,9.58
2019-03-31T02:41:37.918Z,10.55
2019-03-31T02:42:51.168Z,10.40
2019-03-31T02:44:04.408Z,11.15
2019-03-31T02:45:17.646Z,10.13
2019-03-31T02:46:32.526Z,9.68
2019-03-31T02:47:46.221Z,10.28
2019-03-31T02:49:01.099Z,10.15
2019-03-31T02:50:17.591Z,10.28
2019-03-31T02:51:32.438Z,9.48
2019-03-31T02:52:45.674Z,9.03
2019-03-31T02:53:58.901Z,10.65
2019-03-31T02:55:12.225Z,9.30
2019-03-31T02:56:25.445Z,10.85
2019-03-31T02:57:40.010Z,9.33
2019-03-31T02:58:53.903Z,9.20
2019-03-31T03:00:07.309Z,9.13
2019-03-31T03:01:20.894Z,9.58
2019-03-31T03:02:41.960Z,9.08
2019-03-31T03:03:49.066Z,9.98
2019-03-31T03:05:19.006Z,9.80
2019-03-31T03:06:20.858Z,10.08
2019-03-31T03:07:35.262Z,9.20
2019-03-31T03:08:49.898Z,8.80
2019-03-31T03:10:03.120Z,9.03
2019-03-31T03:11:16.695Z,8.50
2019-03-31T03:12:30.004Z,9.10
2019-03-31T03:13:43.244Z,9.38
2019-03-31T03:14:57.002Z,9.63
2019-03-31T03:16:14.813Z,9.10
2019-03-31T03:17:28.042Z,9.20
2019-03-31T03:18:41.347Z,9.50
2019-03-31T03:19:54.622Z,8.73
2019-03-31T03:21:07.951Z,9.10
2019-03-31T03:22:21.173Z,10.05
2019-03-31T03:23:34.421Z,9.35
2019-03-31T03:24:47.646Z,9.30
2019-03-31T03:26:00.878Z,9.53
2019-03-31T03:27:14.111Z,9.93
2019-03-31T03:28:27.334Z,8.85
2019-03-31T03:29:40.573Z,9.93
2019-03-31T03:30:53.911Z,8.50
2019-03-31T03:32:07.397Z,9.03
2019-03-31T03:33:20.785Z,8.80
2019-03-31T03:34:34.173Z,8.98
2019-03-31T03:35:47.432Z,9.15
2019-03-31T03:37:01.934Z,8.83
2019-03-31T03:38:15.175Z,8.63
2019-03-31T03:39:28.397Z,8.80
2019-03-31T03:40:41.624Z,8.73
2019-03-31T03:41:54.866Z,8.28
2019-03-31T03:43:08.104Z,9.83
2019-03-31T03:44:21.885Z,8.33
2019-03-31T03:45:35.109Z,9.43
2019-03-31T03:46:48.827Z,9.40
2019-03-31T03:48:02.052Z,9.68
2019-03-31T03:49:15.459Z,9.38
2019-03-31T03:50:28.870Z,8.53
2019-03-31T03:51:42.173Z,7.97
2019-03-31T03:52:55.408Z,8.03
2019-03-31T03:54:08.648Z,8.65
2019-03-31T03:55:23.497Z,8.43
2019-03-31T03:56:37.180Z,9.05
2019-03-31T03:57:50.418Z,8.63
2019-03-31T03:59:03.662Z,8.68
2019-03-31T04:00:18.506Z,8.33
2019-03-31T04:01:33.367Z,7.70
2019-03-31T04:02:47.076Z,8.33
2019-03-31T04:04:02.381Z,8.15
2019-03-31T04:05:17.485Z,7.50
2019-03-31T04:06:30.730Z,8.85
2019-03-31T04:07:44.069Z,8.08
2019-03-31T04:08:57.302Z,8.63
2019-03-31T04:10:39.073Z,8.38
2019-03-31T04:11:53.452Z,7.90
2019-03-31T04:13:06.724Z,7.85
2019-03-31T04:14:19.954Z,7.90
2019-03-31T04:15:33.176Z,8.63
2019-03-31T04:16:46.421Z,8.80
2019-03-31T04:17:59.712Z,8.90
2019-03-31T04:19:12.937Z,8.28
2019-03-31T04:20:26.162Z,7.90
2019-03-31T04:21:39.412Z,8.40
2019-03-31T04:22:53.362Z,8.48
2019-03-31T04:24:06.596Z,8.40
2019-03-31T04:25:19.816Z,8.73
2019-03-31T04:26:33.126Z,9.03
2019-03-31T04:27:46.350Z,8.35
2019-03-31T04:29:00.478Z,8.13
2019-03-31T04:30:13.738Z,9.23
2019-03-31T04:31:26.959Z,9.73
2019-03-31T04:32:40.258Z,8.30
2019-03-31T04:33:53.679Z,8.53
2019-03-31T04:35:07.842Z,8.80
2019-03-31T04:36:21.067Z,8.28
2019-03-31T04:37:35.747Z,8.58
2019-03-31T04:38:48.973Z,8.88
2019-03-31T04:40:02.549Z,9.00
2019-03-31T04:41:15.818Z,8.58
2019-03-31T04:42:29.123Z,8.03
2019-03-31T04:43:42.360Z,8.40
2019-03-31T04:44:55.589Z,8.43
2019-03-31T04:46:08.826Z,8.38
2019-03-31T04:47:22.051Z,8.40
2019-03-31T04:48:35.294Z,10.03
2019-03-31T04:49:48.520Z,8.18
2019-03-31T04:51:01.776Z,7.87
2019-03-31T04:52:16.017Z,8.53
2019-03-31T04:53:30.881Z,8.50
2019-03-31T04:54:44.113Z,8.68
2019-03-31T04:55:57.342Z,8.60
2019-03-31T04:57:10.563Z,9.15
2019-03-31T04:58:25.438Z,8.68
2019-03-31T04:59:39.831Z,9.03
2019-03-31T05:00:53.045Z,8.50
2019-03-31T05:02:06.270Z,8.43
2019-03-31T05:03:19.501Z,7.87
2019-03-31T05:04:34.378Z,8.05
2019-03-31T05:05:47.604Z,8.33
2019-03-31T05:07:00.838Z,8.83
2019-03-31T05:08:14.058Z,8.20
2019-03-31T05:09:27.767Z,9.53
2019-03-31T05:10:41.001Z,7.83
2019-03-31T05:11:54.237Z,9.23
2019-03-31T05:13:07.467Z,8.20
2019-03-31T05:14:20.695Z,8.43
2019-03-31T05:15:33.914Z,8.43
2019-03-31T05:16:47.135Z,8.93
2019-03-31T05:18:00.353Z,8.78
2019-03-31T05:19:13.596Z,8.25
2019-03-31T05:20:26.825Z,8.15
2019-03-31T05:21:40.048Z,8.45
2019-03-31T05:22:53.277Z,9.33
2019-03-31T05:24:06.505Z,7.72
2019-03-31T05:25:19.734Z,8.35
2019-03-31T05:26:32.953Z,8.23
2019-03-31T05:27:46.173Z,8.20
2019-03-31T05:28:59.409Z,8.80
2019-03-31T05:30:12.657Z,8.03
2019-03-31T05:31:25.970Z,7.80
2019-03-31T05:32:39.213Z,9.00
2019-03-31T05:33:52.432Z,8.83
2019-03-31T05:35:05.839Z,9.38
2019-03-31T05:36:19.073Z,9.18
2019-03-31T05:37:32.309Z,9.03
2019-03-31T05:38:45.532Z,9.05
2019-03-31T05:40:00.525Z,9.55
2019-03-31T05:41:13.737Z,8.75
2019-03-31T05:42:26.965Z,8.03
2019-03-31T05:43:40.209Z,9.18
2019-03-31T05:44:53.438Z,8.60
2019-03-31T05:46:06.669Z,8.13
2019-03-31T05:47:19.935Z,8.20
2019-03-31T05:48:33.197Z,9.05
2019-03-31T05:49:46.893Z,8.40
2019-03-31T05:51:00.138Z,8.43
2019-03-31T05:52:13.349Z,8.70
2019-03-31T05:53:26.581Z,9.00
2019-03-31T05:54:40.522Z,10.03
2019-03-31T05:55:53.801Z,8.78
2019-03-31T05:57:07.027Z,8.63
2019-03-31T05:58:20.338Z,8.13
2019-03-31T05:59:33.574Z,8.80
2019-03-31T06:00:46.878Z,8.65
2019-03-31T06:02:00.104Z,8.80
2019-03-31T06:03:13.325Z,8.08
2019-03-31T06:04:33.149Z,7.70
2019-03-31T06:05:41.512Z,8.45
2019-03-31T06:06:54.726Z,7.53
2019-03-31T06:08:08.911Z,8.08
2019-03-31T06:09:22.134Z,7.17
2019-03-31T06:10:35.366Z,8.18
2019-03-31T06:11:48.606Z,7.97
2019-03-31T06:13:01.831Z,7.17
2019-03-31T06:14:15.055Z,7.05
2019-03-31T06:15:30.609Z,7.70
2019-03-31T06:16:43.854Z,7.30
2019-03-31T06:17:57.085Z,7.53
2019-03-31T06:19:10.322Z,7.62
2019-03-31T06:20:23.572Z,6.83
2019-03-31T06:21:36.782Z,8.93
2019-03-31T06:22:50.014Z,8.33
2019-03-31T06:24:03.240Z,8.20
2019-03-31T06:25:17.651Z,7.25
2019-03-31T06:26:31.501Z,7.58
2019-03-31T06:27:45.468Z,7.12
2019-03-31T06:28:58.693Z,7.45
2019-03-31T06:30:11.946Z,7.12
2019-03-31T06:31:25.170Z,7.08
2019-03-31T06:32:38.405Z,7.62
2019-03-31T06:33:53.976Z,7.12
2019-03-31T06:35:08.366Z,7.92
2019-03-31T06:36:21.831Z,7.55
2019-03-31T06:37:35.061Z,7.72
2019-03-31T06:38:48.273Z,7.85
2019-03-31T06:40:01.571Z,7.67
2019-03-31T06:41:14.883Z,6.97
2019-03-31T06:42:29.130Z,7.05
2019-03-31T06:43:42.358Z,7.55
2019-03-31T06:44:55.585Z,7.45
2019-03-31T06:46:08.825Z,7.47
2019-03-31T06:47:22.061Z,8.10
2019-03-31T06:48:35.753Z,7.53
2019-03-31T06:49:48.988Z,7.83
2019-03-31T06:51:02.227Z,7.20
2019-03-31T06:52:15.453Z,7.83
2019-03-31T06:53:28.677Z,8.03
2019-03-31T06:54:41.916Z,8.45
2019-03-31T06:55:55.382Z,8.40
2019-03-31T06:57:08.611Z,7.08
2019-03-31T06:58:21.846Z,7.70
2019-03-31T06:59:35.094Z,7.83
2019-03-31T07:00:48.329Z,7.47
2019-03-31T07:02:03.116Z,8.70
2019-03-31T07:03:16.519Z,7.72
2019-03-31T07:04:29.753Z,7.92
2019-03-31T07:05:42.988Z,7.72
2019-03-31T07:06:56.213Z,8.63
2019-03-31T07:08:09.503Z,8.65
2019-03-31T07:09:22.742Z,9.23
2019-03-31T07:10:36.301Z,7.55
2019-03-31T07:11:51.157Z,8.43
2019-03-31T07:13:04.378Z,8.08
2019-03-31T07:14:17.611Z,9.00
2019-03-31T07:15:32.078Z,8.68
2019-03-31T07:16:45.313Z,8.80
2019-03-31T07:17:58.549Z,8.78
2019-03-31T07:19:13.402Z,9.18
2019-03-31T07:20:26.630Z,8.48
2019-03-31T07:21:39.873Z,8.98
2019-03-31T07:22:53.102Z,7.83
2019-03-31T07:24:06.341Z,8.15
2019-03-31T07:25:20.831Z,7.70
2019-03-31T07:26:34.312Z,8.10
2019-03-31T07:27:47.542Z,8.00
2019-03-31T07:29:00.787Z,9.05
2019-03-31T07:30:18.841Z,8.75
2019-03-31T07:31:32.088Z,9.68
2019-03-31T07:32:46.961Z,8.43
2019-03-31T07:34:00.192Z,8.65
2019-03-31T07:35:18.691Z,8.60
2019-03-31T07:36:28.381Z,8.38
2019-03-31T07:37:47.480Z,9.38
2019-03-31T07:38:56.618Z,10.38
2019-03-31T07:40:14.525Z,8.75
2019-03-31T07:41:28.820Z,8.45
2019-03-31T07:42:42.286Z,7.97
2019-03-31T07:43:55.518Z,8.23
2019-03-31T07:45:08.813Z,8.85
2019-03-31T07:46:22.069Z,9.70
2019-03-31T07:47:35.295Z,10.48
2019-03-31T07:48:48.987Z,10.10
2019-03-31T07:50:02.272Z,10.25
2019-03-31T07:51:15.800Z,9.23
2019-03-31T07:52:29.030Z,10.15
2019-03-31T07:53:42.251Z,9.75
2019-03-31T07:54:56.221Z,10.38
2019-03-31T07:56:09.458Z,10.80
2019-03-31T07:57:22.691Z,11.55
2019-03-31T07:58:35.926Z,11.20
2019-03-31T07:59:49.199Z,10.70
2019-03-31T08:01:02.475Z,10.53
2019-03-31T08:02:15.732Z,10.53
2019-03-31T08:03:28.961Z,11.05
2019-03-31T08:04:42.201Z,10.88
2019-03-31T08:05:55.437Z,11.43
2019-03-31T08:07:09.241Z,11.48
2019-03-31T08:08:22.473Z,12.23
2019-03-31T08:09:35.701Z,12.10
2019-03-31T08:10:48.942Z,11.05
2019-03-31T08:12:03.550Z,11.30
2019-03-31T08:13:16.774Z,11.95
2019-03-31T08:14:30.003Z,10.75
2019-03-31T08:15:43.255Z,11.85
2019-03-31T08:16:56.494Z,11.40
2019-03-31T08:18:11.357Z,12.15
2019-03-31T08:19:26.370Z,12.47
2019-03-31T08:20:40.673Z,13.18
2019-03-31T08:21:53.909Z,12.80
2019-03-31T08:23:07.134Z,12.65
2019-03-31T08:24:20.376Z,12.85
2019-03-31T08:25:33.979Z,12.23
2019-03-31T08:26:47.231Z,12.58
2019-03-31T08:28:01.978Z,13.03
2019-03-31T08:29:15.221Z,12.35
2019-03-31T08:30:28.460Z,12.95
2019-03-31T08:31:41.703Z,13.93
2019-03-31T08:32:54.937Z,14.55
2019-03-31T08:34:09.245Z,13.18
2019-03-31T08:35:24.322Z,14.28
2019-03-31T08:36:37.570Z,13.80
2019-03-31T08:37:50.805Z,14.87
2019-03-31T08:39:06.633Z,13.78
2019-03-31T08:40:19.877Z,15.23
2019-03-31T08:41:33.115Z,14.13
2019-03-31T08:42:48.045Z,14.33
2019-03-31T08:44:01.306Z,14.13
2019-03-31T08:45:14.955Z,15.18
2019-03-31T08:46:28.194Z,14.70
2019-03-31T08:47:41.444Z,14.65
2019-03-31T08:48:54.683Z,15.15
2019-03-31T08:50:08.342Z,16.55
2019-03-31T08:51:21.586Z,15.20
2019-03-31T08:52:36.524Z,15.30
2019-03-31T08:53:51.021Z,14.25
2019-03-31T08:55:06.484Z,14.63
2019-03-31T08:56:19.710Z,15.35
2019-03-31T08:57:32.968Z,15.83
2019-03-31T08:58:46.206Z,16.00
2019-03-31T08:59:59.452Z,15.70
2019-03-31T09:01:14.317Z,15.13
2019-03-31T09:02:29.205Z,15.32
2019-03-31T09:03:42.442Z,16.50
2019-03-31T09:04:55.672Z,15.68
2019-03-31T09:06:08.906Z,16.05
2019-03-31T09:07:22.145Z,17.32
2019-03-31T09:08:35.383Z,15.98
2019-03-31T09:09:48.642Z,16.30
2019-03-31T09:11:01.976Z,17.25
2019-03-31T09:12:15.470Z,17.87
2019-03-31T09:13:28.795Z,17.65
2019-03-31T09:14:42.037Z,17.57
2019-03-31T09:15:55.265Z,17.80
2019-03-31T09:17:08.746Z,17.87
2019-03-31T09:18:21.997Z,16.90
2019-03-31T09:19:35.301Z,17.15
2019-03-31T09:20:48.532Z,18.35
2019-03-31T09:22:01.763Z,18.07
2019-03-31T09:23:14.990Z,18.32
2019-03-31T09:24:28.225Z,17.60
2019-03-31T09:25:42.025Z,17.52
2019-03-31T09:26:55.509Z,17.57
2019-03-31T09:28:08.733Z,17.60
2019-03-31T09:29:21.991Z,17.52
2019-03-31T09:30:35.215Z,18.60
2019-03-31T09:31:48.441Z,16.70
2019-03-31T09:33:01.695Z,17.70
2019-03-31T09:34:14.923Z,16.80
2019-03-31T09:35:28.166Z,17.48
2019-03-31T09:36:41.398Z,15.93
2019-03-31T09:37:54.625Z,16.20
2019-03-31T09:39:08.334Z,17.02
2019-03-31T09:40:21.581Z,18.67
2019-03-31T09:41:34.825Z,18.75
2019-03-31T09:42:48.072Z,18.25
2019-03-31T09:44:01.297Z,17.10
2019-03-31T09:45:14.530Z,16.32
2019-03-31T09:46:27.782Z,16.15
2019-03-31T09:47:41.015Z,16.93
2019-03-31T09:48:54.250Z,17.17
2019-03-31T09:50:09.230Z,16.50
2019-03-31T09:51:22.454Z,16.00
2019-03-31T09:52:35.694Z,15.93
2019-03-31T09:53:48.925Z,15.83
2019-03-31T09:55:02.166Z,17.23
2019-03-31T09:56:15.505Z,17.42
2019-03-31T09:57:28.816Z,17.82
2019-03-31T09:58:42.771Z,17.25
2019-03-31T09:59:55.999Z,17.87
2019-03-31T10:01:09.299Z,17.10
2019-03-31T10:02:23.656Z,18.07
2019-03-31T10:03:38.538Z,15.70
2019-03-31T10:04:51.787Z,15.58
2019-03-31T10:06:10.994Z,13.25
2019-03-31T10:07:20.005Z,14.55
2019-03-31T10:08:33.242Z,13.70
2019-03-31T10:09:46.489Z,14.68
2019-03-31T10:11:03.004Z,15.93
2019-03-31T10:12:16.475Z,15.58
2019-03-31T10:13:29.708Z,16.05
2019-03-31T10:14:43.415Z,15.32
2019-03-31T10:15:56.718Z,13.95
2019-03-31T10:17:09.958Z,13.28
2019-03-31T10:18:26.121Z,13.48
2019-03-31T10:19:39.380Z,13.35
2019-03-31T10:20:52.611Z,12.35
2019-03-31T10:22:05.853Z,13.00
2019-03-31T10:23:19.105Z,11.93
2019-03-31T10:24:33.581Z,12.05
2019-03-31T10:25:46.818Z,10.85
2019-03-31T10:27:00.049Z,10.72
2019-03-31T10:28:13.295Z,10.35
2019-03-31T10:29:26.539Z,9.93
2019-03-31T10:30:41.212Z,11.00
2019-03-31T10:31:54.448Z,8.68
2019-03-31T10:33:07.943Z,10.45
2019-03-31T10:34:22.805Z,11.22
2019-03-31T10:35:36.050Z,10.98
2019-03-31T10:36:49.292Z,11.00
2019-03-31T10:38:02.589Z,10.23
2019-03-31T10:39:15.827Z,10.78
2019-03-31T10:40:29.331Z,11.00
2019-03-31T10:41:42.561Z,12.45
2019-03-31T10:42:55.793Z,11.78
2019-03-31T10:44:09.035Z,12.15
2019-03-31T10:45:23.942Z,11.83
2019-03-31T10:46:37.184Z,11.10
2019-03-31T10:47:51.689Z,11.03
2019-03-31T10:49:06.157Z,11.10
2019-03-31T10:50:19.858Z,10.65
2019-03-31T10:51:33.099Z,9.45
2019-03-31T10:52:46.327Z,10.45
2019-03-31T10:53:59.623Z,11.60
2019-03-31T10:55:12.908Z,11.22
2019-03-31T10:56:26.137Z,11.57
2019-03-31T10:57:39.369Z,11.40
2019-03-31T10:58:52.614Z,10.72
2019-03-31T11:00:07.785Z,10.30
2019-03-31T11:01:21.038Z,11.38
2019-03-31T11:02:35.570Z,10.93
2019-03-31T11:03:48.805Z,10.32
2019-03-31T11:05:02.048Z,10.60
2019-03-31T11:06:15.282Z,10.28
2019-03-31T11:07:28.509Z,10.15
2019-03-31T11:08:46.099Z,10.00
2019-03-31T11:09:59.337Z,10.03
2019-03-31T11:11:12.888Z,9.70
2019-03-31T11:12:26.132Z,9.13
2019-03-31T11:13:39.365Z,9.68
2019-03-31T11:14:52.597Z,10.05
2019-03-31T11:16:09.933Z,9.25
2019-03-31T11:17:23.188Z,11.15
2019-03-31T11:18:38.053Z,10.32
2019-03-31T11:19:51.282Z,10.40
2019-03-31T11:21:06.169Z,10.38
2019-03-31T11:22:33.051Z,10.03
2019-03-31T11:23:46.288Z,10.08
2019-03-31T11:24:59.529Z,9.73
2019-03-31T11:26:12.765Z,10.85
2019-03-31T11:27:26.020Z,9.70
2019-03-31T11:28:40.133Z,9.95
2019-03-31T11:29:53.361Z,9.83
2019-03-31T11:31:06.613Z,9.80
2019-03-31T11:32:19.855Z,8.50
2019-03-31T11:33:33.834Z,10.28
2019-03-31T11:34:47.076Z,9.38
2019-03-31T11:36:00.858Z,10.08
2019-03-31T11:37:14.363Z,9.25
2019-03-31T11:38:27.592Z,10.08
2019-03-31T11:39:40.823Z,9.93
2019-03-31T11:40:54.053Z,9.58
2019-03-31T11:42:07.551Z,8.85
2019-03-31T11:43:20.769Z,9.08
2019-03-31T11:44:34.962Z,9.28
2019-03-31T11:45:48.202Z,8.55
2019-03-31T11:47:01.447Z,8.20
2019-03-31T11:48:15.395Z,8.45
2019-03-31T11:49:28.635Z,7.95
2019-03-31T11:50:41.871Z,7.85
2019-03-31T11:51:55.103Z,8.15
2019-03-31T11:53:08.459Z,9.25
2019-03-31T11:54:22.735Z,8.80
2019-03-31T11:55:35.964Z,7.20
2019-03-31T11:56:49.469Z,6.72
2019-03-31T11:58:03.349Z,7.62
2019-03-31T11:59:16.586Z,8.68
2019-03-31T12:00:32.468Z,8.83
2019-03-31T12:01:45.686Z,8.18
2019-03-31T12:02:58.993Z,8.85
2019-03-31T12:04:12.258Z,9.63
2019-03-31T12:05:27.154Z,9.35
2019-03-31T12:06:41.654Z,8.03
2019-03-31T12:07:54.906Z,9.15
2019-03-31T12:09:08.134Z,8.95
2019-03-31T12:10:21.366Z,7.65
2019-03-31T12:11:39.794Z,7.85
2019-03-31T12:12:53.030Z,8.30
2019-03-31T12:14:09.161Z,8.25
2019-03-31T12:15:22.397Z,7.62
2019-03-31T12:16:36.956Z,7.62
2019-03-31T12:17:50.196Z,7.97
2019-03-31T12:19:03.425Z,8.25
2019-03-31T12:20:16.671Z,8.95
2019-03-31T12:21:31.161Z,8.58
2019-03-31T12:22:44.432Z,8.05
2019-03-31T12:23:59.096Z,9.23
2019-03-31T12:25:12.331Z,6.83
2019-03-31T12:26:27.182Z,7.47
2019-03-31T12:27:40.437Z,7.92
2019-03-31T12:28:53.678Z,7.62
2019-03-31T12:30:07.166Z,6.37
2019-03-31T12:31:20.450Z,6.60
2019-03-31T12:32:33.690Z,8.40
2019-03-31T12:33:46.925Z,8.05
2019-03-31T12:35:00.423Z,8.23
2019-03-31T12:36:13.645Z,7.00
2019-03-31T12:37:41.083Z,8.08
2019-03-31T12:38:41.830Z,9.45
2019-03-31T12:39:55.058Z,9.20
2019-03-31T12:41:09.456Z,9.53
2019-03-31T12:42:22.695Z,9.78
2019-03-31T12:43:35.933Z,8.50
2019-03-31T12:44:49.163Z,8.20
2019-03-31T12:46:02.397Z,8.15
2019-03-31T12:47:17.456Z,7.55
2019-03-31T12:48:31.766Z,6.75
2019-03-31T12:49:45.095Z,6.55
2019-03-31T12:50:58.588Z,7.87
2019-03-31T12:52:11.821Z,8.25
2019-03-31T12:53:25.306Z,7.80
2019-03-31T12:54:38.543Z,8.30
2019-03-31T12:55:59.839Z,8.78
2019-03-31T12:57:07.540Z,8.15
2019-03-31T12:58:20.846Z,8.30
2019-03-31T12:59:34.089Z,8.20
2019-03-31T13:00:47.314Z,7.03
2019-03-31T13:02:00.541Z,7.80
2019-03-31T13:03:16.154Z,7.87
2019-03-31T13:04:28.746Z,7.72
2019-03-31T13:05:41.978Z,8.38
2019-03-31T13:06:56.842Z,8.35
2019-03-31T13:08:10.074Z,8.60
2019-03-31T13:09:23.321Z,6.80
2019-03-31T13:10:36.870Z,9.40
2019-03-31T13:11:54.225Z,8.80
2019-03-31T13:13:07.941Z,7.85
2019-03-31T13:14:21.181Z,7.70
2019-03-31T13:15:34.406Z,8.08
2019-03-31T13:16:47.633Z,8.10
2019-03-31T13:18:07.507Z,7.72
2019-03-31T13:19:20.777Z,8.30
2019-03-31T13:20:34.013Z,7.87
2019-03-31T13:21:47.236Z,7.87
2019-03-31T13:23:00.475Z,7.55
2019-03-31T13:24:13.714Z,7.92
2019-03-31T13:25:28.205Z,7.97
2019-03-31T13:26:42.157Z,8.15
2019-03-31T13:27:57.712Z,7.85
2019-03-31T13:29:11.905Z,8.05
2019-03-31T13:30:25.135Z,7.35
2019-03-31T13:31:42.262Z,8.08
2019-03-31T13:32:57.837Z,8.20
2019-03-31T13:34:16.905Z,9.25
2019-03-31T13:35:33.015Z,7.62
2019-03-31T13:37:10.840Z,8.53
2019-03-31T13:40:09.018Z,8.00
2019-03-31T13:41:33.071Z,7.28
2019-03-31T13:42:48.032Z,6.80
2019-03-31T13:49:20.269Z,7.70
2019-03-31T13:50:42.612Z,8.33
2019-03-31T13:52:10.429Z,8.65
2019-03-31T13:55:10.609Z,8.75
2019-03-31T13:56:26.601Z,8.18
2019-03-31T13:57:44.350Z,9.00
2019-03-31T13:58:59.336Z,8.58
2019-03-31T14:03:54.509Z,9.13
2019-03-31T14:05:18.478Z,8.38
2019-03-31T14:10:20.552Z,9.43
2019-03-31T14:11:37.324Z,10.10
2019-03-31T14:14:29.627Z,9.05
2019-03-31T14:17:29.431Z,8.78
2019-03-31T14:18:53.846Z,9.90
2019-03-31T14:20:14.517Z,9.83
2019-03-31T14:21:52.558Z,9.70
2019-03-31T14:23:16.229Z,9.65
2019-03-31T14:24:35.859Z,9.18
2019-03-31T14:25:55.768Z,10.15
2019-03-31T14:27:13.173Z,8.65
2019-03-31T14:30:10.485Z,8.95
2019-03-31T14:33:38.093Z,9.45
2019-03-31T14:35:14.478Z,8.38
2019-03-31T14:36:51.289Z,9.98
2019-03-31T14:38:15.166Z,10.35
2019-03-31T14:40:02.293Z,9.85
2019-03-31T14:41:37.479Z,7.60
2019-03-31T14:43:02.190Z,9.68
2019-03-31T14:46:19.718Z,10.10
2019-03-31T14:47:40.139Z,10.38
2019-03-31T14:48:55.256Z,10.82
2019-03-31T14:50:28.475Z,10.10
2019-03-31T14:53:39.321Z,10.63
2019-03-31T14:54:57.056Z,11.18
2019-03-31T14:56:17.327Z,11.40
2019-03-31T14:57:31.081Z,10.30
2019-03-31T14:59:01.634Z,10.98
2019-03-31T15:00:31.270Z,9.65
2019-03-31T15:01:51.851Z,9.73
2019-03-31T15:03:06.992Z,10.48
2019-03-31T15:04:25.545Z,10.23
2019-03-31T15:05:51.678Z,9.48
2019-03-31T15:07:05.757Z,9.30
2019-03-31T15:10:20.650Z,8.95
2019-03-31T15:11:48.608Z,10.55
2019-03-31T15:13:05.690Z,9.78
2019-03-31T15:14:21.844Z,10.38
2019-03-31T15:15:40.478Z,10.38
2019-03-31T15:16:58.308Z,10.63
2019-03-31T15:18:13.510Z,9.53
2019-03-31T15:19:27.510Z,11.60
2019-03-31T15:20:43.950Z,10.72
2019-03-31T15:21:57.430Z,10.93
2019-03-31T15:23:14.225Z,11.18
2019-03-31T15:26:10.949Z,10.58
2019-03-31T15:27:25.816Z,9.28
2019-03-31T15:28:45.717Z,9.63
2019-03-31T15:30:00.693Z,9.35
2019-03-31T15:31:15.826Z,9.28
2019-03-31T15:32:29.087Z,9.18
2019-03-31T15:33:43.038Z,9.73
2019-03-31T15:34:56.514Z,9.43
2019-03-31T15:36:11.158Z,9.60
2019-03-31T15:37:25.769Z,9.98
2019-03-31T15:38:40.022Z,9.85
2019-03-31T15:39:53.245Z,9.88
2019-03-31T15:41:20.365Z,10.10
2019-03-31T15:42:21.437Z,9.30
2019-03-31T15:43:34.677Z,10.45
2019-03-31T15:44:47.921Z,10.30
2019-03-31T15:46:01.162Z,10.15
2019-03-31T15:47:14.396Z,11.25
2019-03-31T15:48:27.646Z,11.03
2019-03-31T15:49:40.886Z,10.55
2019-03-31T15:50:54.129Z,10.40
2019-03-31T15:52:08.969Z,11.08
2019-03-31T15:53:22.282Z,11.48
2019-03-31T15:54:35.519Z,11.45
2019-03-31T15:55:48.757Z,11.45
2019-03-31T15:57:02.428Z,11.40
2019-03-31T15:58:15.788Z,11.65
2019-03-31T15:59:29.034Z,12.00
2019-03-31T16:00:42.277Z,11.20
2019-03-31T16:01:55.761Z,10.68
2019-03-31T16:03:08.994Z,12.70
2019-03-31T16:04:22.234Z,12.78
2019-03-31T16:05:35.461Z,13.25
2019-03-31T16:06:49.178Z,12.53
2019-03-31T16:08:02.418Z,12.60
2019-03-31T16:09:23.460Z,12.05
2019-03-31T16:10:30.625Z,11.55
2019-03-31T16:11:53.742Z,12.15
2019-03-31T16:13:00.521Z,12.35
2019-03-31T16:14:13.761Z,11.55
2019-03-31T16:15:27.002Z,11.20
2019-03-31T16:16:40.241Z,11.00
2019-03-31T16:17:53.476Z,11.00
2019-03-31T16:19:06.711Z,10.30
2019-03-31T16:20:19.961Z,10.95
2019-03-31T16:21:33.255Z,11.75
2019-03-31T16:22:47.634Z,11.18
2019-03-31T16:24:00.859Z,10.72
2019-03-31T16:25:15.767Z,10.82
2019-03-31T16:26:29.001Z,10.03
2019-03-31T16:27:42.226Z,10.35
2019-03-31T16:28:57.328Z,11.22
2019-03-31T16:30:10.569Z,11.43
2019-03-31T16:31:23.809Z,12.70
2019-03-31T16:32:37.041Z,12.40
2019-03-31T16:33:50.283Z,11.80
2019-03-31T16:35:06.175Z,11.83
2019-03-31T16:36:19.412Z,10.85
2019-03-31T16:37:32.655Z,12.10
2019-03-31T16:38:45.889Z,11.63
2019-03-31T16:39:59.130Z,12.03
2019-03-31T16:41:12.833Z,11.18
2019-03-31T16:42:26.065Z,12.35
2019-03-31T16:43:39.314Z,12.05